sensor_id;sensor_type;location;lat;lon;timestamp;P1;durP1;ratioP1;P2;durP2;ratioP2
14396;SDS011;50653;47.810;13.022;2022-12-07T00:01:41;14.27;;;10.23;;
14396;SDS011;50653;47.810;13.022;2022-12-07T00:04:10;11.07;;;9.93;;
14396;SDS011;50653;47.810;13.022;2022-12-07T00:06:39;10.73;;;9.63;;
14396;SDS011;50653;47.810;13.022;2022-12-07T00:09:06;12.20;;;8.53;;
14396;SDS011;50653;47.810;13.022;2022-12-07T00:11:34;10.00;;;8.83;;
14396;SDS011;50653;47.810;13.022;2022-12-07T00:14:01;12.30;;;9.37;;
14396;SDS011;50653;47.810;13.022;2022-12-07T00:16:30;10.17;;;9.13;;
14396;SDS011;50653;47.810;13.022;2022-12-07T00:18:56;11.43;;;9.33;;
14396;SDS011;50653;47.810;13.022;2022-12-07T00:21:26;11.53;;;10.17;;
14396;SDS011;50653;47.810;13.022;2022-12-07T00:23:53;9.93;;;8.93;;
14396;SDS011;50653;47.810;13.022;2022-12-07T00:26:21;13.50;;;10.50;;
14396;SDS011;50653;47.810;13.022;2022-12-07T00:28:51;13.33;;;11.07;;
14396;SDS011;50653;47.810;13.022;2022-12-07T00:31:22;10.10;;;9.10;;
14396;SDS011;50653;47.810;13.022;2022-12-07T00:33:50;11.33;;;9.73;;
14396;SDS011;50653;47.810;13.022;2022-12-07T00:36:17;13.23;;;10.00;;
14396;SDS011;50653;47.810;13.022;2022-12-07T00:38:45;10.53;;;9.53;;
14396;SDS011;50653;47.810;13.022;2022-12-07T00:41:12;10.23;;;9.23;;
14396;SDS011;50653;47.810;13.022;2022-12-07T00:43:39;11.67;;;9.73;;
14396;SDS011;50653;47.810;13.022;2022-12-07T00:46:06;11.33;;;8.87;;
14396;SDS011;50653;47.810;13.022;2022-12-07T00:48:32;11.50;;;10.33;;
14396;SDS011;50653;47.810;13.022;2022-12-07T00:50:57;12.93;;;10.30;;
14396;SDS011;50653;47.810;13.022;2022-12-07T00:53:23;11.67;;;10.43;;
14396;SDS011;50653;47.810;13.022;2022-12-07T00:55:49;14.27;;;9.53;;
14396;SDS011;50653;47.810;13.022;2022-12-07T00:58:15;10.90;;;9.77;;
14396;SDS011;50653;47.810;13.022;2022-12-07T01:00:41;13.03;;;9.50;;
14396;SDS011;50653;47.810;13.022;2022-12-07T01:03:09;12.37;;;9.17;;
14396;SDS011;50653;47.810;13.022;2022-12-07T01:05:36;10.87;;;8.80;;
14396;SDS011;50653;47.810;13.022;2022-12-07T01:08:02;13.93;;;9.27;;
14396;SDS011;50653;47.810;13.022;2022-12-07T01:10:28;10.57;;;9.23;;
14396;SDS011;50653;47.810;13.022;2022-12-07T01:12:55;11.33;;;9.63;;
14396;SDS011;50653;47.810;13.022;2022-12-07T01:15:20;13.33;;;9.83;;
14396;SDS011;50653;47.810;13.022;2022-12-07T01:17:46;15.70;;;11.20;;
14396;SDS011;50653;47.810;13.022;2022-12-07T01:20:12;39.17;;;19.93;;
14396;SDS011;50653;47.810;13.022;2022-12-07T01:22:38;13.53;;;9.80;;
14396;SDS011;50653;47.810;13.022;2022-12-07T01:25:06;14.30;;;9.20;;
14396;SDS011;50653;47.810;13.022;2022-12-07T01:27:32;15.33;;;9.20;;
14396;SDS011;50653;47.810;13.022;2022-12-07T01:29:59;11.43;;;8.73;;
14396;SDS011;50653;47.810;13.022;2022-12-07T01:32:25;10.97;;;9.23;;
14396;SDS011;50653;47.810;13.022;2022-12-07T01:34:51;12.07;;;10.90;;
14396;SDS011;50653;47.810;13.022;2022-12-07T01:37:16;11.20;;;8.93;;
14396;SDS011;50653;47.810;13.022;2022-12-07T01:39:42;10.07;;;9.07;;
14396;SDS011;50653;47.810;13.022;2022-12-07T01:42:11;12.00;;;9.77;;
14396;SDS011;50653;47.810;13.022;2022-12-07T01:47:41;11.80;;;9.77;;
14396;SDS011;50653;47.810;13.022;2022-12-07T01:50:08;10.30;;;9.30;;
14396;SDS011;50653;47.810;13.022;2022-12-07T01:52:35;10.73;;;8.50;;
14396;SDS011;50653;47.810;13.022;2022-12-07T01:55:03;10.30;;;9.30;;
14396;SDS011;50653;47.810;13.022;2022-12-07T01:57:34;17.67;;;10.20;;
14396;SDS011;50653;47.810;13.022;2022-12-07T02:00:06;12.60;;;9.23;;
14396;SDS011;50653;47.810;13.022;2022-12-07T02:02:41;10.07;;;8.33;;
14396;SDS011;50653;47.810;13.022;2022-12-07T02:05:18;9.10;;;8.50;;
14396;SDS011;50653;47.810;13.022;2022-12-07T02:07:44;10.90;;;8.67;;
14396;SDS011;50653;47.810;13.022;2022-12-07T02:10:20;8.40;;;7.20;;
14396;SDS011;50653;47.810;13.022;2022-12-07T02:12:52;8.90;;;8.00;;
14396;SDS011;50653;47.810;13.022;2022-12-07T02:15:20;8.43;;;7.70;;
14396;SDS011;50653;47.810;13.022;2022-12-07T02:18:07;9.53;;;8.53;;
14396;SDS011;50653;47.810;13.022;2022-12-07T02:23:38;12.50;;;9.53;;
14396;SDS011;50653;47.810;13.022;2022-12-07T02:29:17;19.77;;;11.50;;
14396;SDS011;50653;47.810;13.022;2022-12-07T02:34:49;15.17;;;12.00;;
14396;SDS011;50653;47.810;13.022;2022-12-07T02:37:29;16.37;;;12.80;;
14396;SDS011;50653;47.810;13.022;2022-12-07T02:40:05;18.63;;;13.43;;
14396;SDS011;50653;47.810;13.022;2022-12-07T02:42:45;19.20;;;12.50;;
14396;SDS011;50653;47.810;13.022;2022-12-07T02:45:17;20.10;;;12.87;;
14396;SDS011;50653;47.810;13.022;2022-12-07T02:47:46;21.63;;;12.27;;
14396;SDS011;50653;47.810;13.022;2022-12-07T02:50:17;16.10;;;12.10;;
14396;SDS011;50653;47.810;13.022;2022-12-07T02:52:46;19.80;;;12.90;;
14396;SDS011;50653;47.810;13.022;2022-12-07T02:55:12;32.90;;;17.00;;
14396;SDS011;50653;47.810;13.022;2022-12-07T02:57:45;19.53;;;13.20;;
14396;SDS011;50653;47.810;13.022;2022-12-07T03:00:19;26.17;;;13.40;;
14396;SDS011;50653;47.810;13.022;2022-12-07T03:10:51;30.20;;;17.90;;
14396;SDS011;50653;47.810;13.022;2022-12-07T03:16:01;25.00;;;17.37;;
14396;SDS011;50653;47.810;13.022;2022-12-07T03:18:33;28.10;;;19.20;;
14396;SDS011;50653;47.810;13.022;2022-12-07T03:21:05;26.87;;;17.17;;
14396;SDS011;50653;47.810;13.022;2022-12-07T03:23:35;23.67;;;15.60;;
14396;SDS011;50653;47.810;13.022;2022-12-07T03:26:02;25.27;;;15.43;;
14396;SDS011;50653;47.810;13.022;2022-12-07T03:28:34;21.10;;;13.27;;
14396;SDS011;50653;47.810;13.022;2022-12-07T03:31:08;25.23;;;13.50;;
14396;SDS011;50653;47.810;13.022;2022-12-07T03:33:47;20.63;;;14.27;;
14396;SDS011;50653;47.810;13.022;2022-12-07T03:36:32;20.27;;;14.63;;
14396;SDS011;50653;47.810;13.022;2022-12-07T03:39:04;19.93;;;13.17;;
14396;SDS011;50653;47.810;13.022;2022-12-07T03:41:46;24.00;;;15.87;;
14396;SDS011;50653;47.810;13.022;2022-12-07T03:44:12;23.37;;;13.87;;
14396;SDS011;50653;47.810;13.022;2022-12-07T03:49:31;26.67;;;14.40;;
14396;SDS011;50653;47.810;13.022;2022-12-07T03:54:48;27.90;;;14.93;;
14396;SDS011;50653;47.810;13.022;2022-12-07T03:57:37;20.53;;;13.20;;
14396;SDS011;50653;47.810;13.022;2022-12-07T04:00:05;23.30;;;15.53;;
14396;SDS011;50653;47.810;13.022;2022-12-07T04:02:37;34.73;;;13.83;;
14396;SDS011;50653;47.810;13.022;2022-12-07T04:05:03;29.73;;;14.77;;
14396;SDS011;50653;47.810;13.022;2022-12-07T04:07:29;27.53;;;13.63;;
14396;SDS011;50653;47.810;13.022;2022-12-07T04:09:55;31.27;;;14.50;;
14396;SDS011;50653;47.810;13.022;2022-12-07T04:12:21;19.17;;;12.37;;
14396;SDS011;50653;47.810;13.022;2022-12-07T04:14:47;18.37;;;10.87;;
14396;SDS011;50653;47.810;13.022;2022-12-07T04:17:13;24.03;;;14.33;;
14396;SDS011;50653;47.810;13.022;2022-12-07T04:19:39;21.20;;;13.20;;
14396;SDS011;50653;47.810;13.022;2022-12-07T04:22:04;18.80;;;12.17;;
14396;SDS011;50653;47.810;13.022;2022-12-07T04:24:31;19.73;;;12.60;;
14396;SDS011;50653;47.810;13.022;2022-12-07T04:26:57;18.50;;;12.47;;
14396;SDS011;50653;47.810;13.022;2022-12-07T04:29:23;22.97;;;14.40;;
14396;SDS011;50653;47.810;13.022;2022-12-07T04:31:50;25.53;;;13.00;;
14396;SDS011;50653;47.810;13.022;2022-12-07T04:34:16;18.07;;;11.40;;
14396;SDS011;50653;47.810;13.022;2022-12-07T04:36:42;22.53;;;13.40;;
14396;SDS011;50653;47.810;13.022;2022-12-07T04:39:13;23.83;;;14.20;;
14396;SDS011;50653;47.810;13.022;2022-12-07T04:41:45;21.70;;;13.07;;
14396;SDS011;50653;47.810;13.022;2022-12-07T04:44:10;23.53;;;13.40;;
14396;SDS011;50653;47.810;13.022;2022-12-07T04:46:39;20.17;;;13.23;;
14396;SDS011;50653;47.810;13.022;2022-12-07T04:49:05;20.80;;;12.47;;
14396;SDS011;50653;47.810;13.022;2022-12-07T04:51:31;23.40;;;12.73;;
14396;SDS011;50653;47.810;13.022;2022-12-07T04:53:57;21.23;;;14.07;;
14396;SDS011;50653;47.810;13.022;2022-12-07T04:56:23;23.80;;;14.00;;
14396;SDS011;50653;47.810;13.022;2022-12-07T04:58:49;15.60;;;11.00;;
14396;SDS011;50653;47.810;13.022;2022-12-07T05:01:17;18.10;;;11.80;;
14396;SDS011;50653;47.810;13.022;2022-12-07T05:03:43;18.73;;;11.10;;
14396;SDS011;50653;47.810;13.022;2022-12-07T05:06:10;17.50;;;11.33;;
14396;SDS011;50653;47.810;13.022;2022-12-07T05:08:36;18.10;;;12.40;;
14396;SDS011;50653;47.810;13.022;2022-12-07T05:11:02;19.50;;;11.73;;
14396;SDS011;50653;47.810;13.022;2022-12-07T05:13:29;19.47;;;12.10;;
14396;SDS011;50653;47.810;13.022;2022-12-07T05:15:56;16.53;;;11.93;;
14396;SDS011;50653;47.810;13.022;2022-12-07T05:18:21;21.20;;;12.87;;
14396;SDS011;50653;47.810;13.022;2022-12-07T05:20:48;17.87;;;12.90;;
14396;SDS011;50653;47.810;13.022;2022-12-07T05:23:14;17.50;;;12.60;;
14396;SDS011;50653;47.810;13.022;2022-12-07T05:25:40;19.30;;;11.87;;
14396;SDS011;50653;47.810;13.022;2022-12-07T05:28:05;20.97;;;11.30;;
14396;SDS011;50653;47.810;13.022;2022-12-07T05:30:31;17.60;;;12.17;;
14396;SDS011;50653;47.810;13.022;2022-12-07T05:32:57;15.03;;;10.70;;
14396;SDS011;50653;47.810;13.022;2022-12-07T05:35:23;13.40;;;9.13;;
14396;SDS011;50653;47.810;13.022;2022-12-07T05:37:49;18.17;;;11.33;;
14396;SDS011;50653;47.810;13.022;2022-12-07T05:40:15;14.73;;;10.27;;
14396;SDS011;50653;47.810;13.022;2022-12-07T05:42:41;17.37;;;11.47;;
14396;SDS011;50653;47.810;13.022;2022-12-07T05:45:07;13.77;;;10.13;;
14396;SDS011;50653;47.810;13.022;2022-12-07T05:47:35;20.30;;;11.57;;
14396;SDS011;50653;47.810;13.022;2022-12-07T05:50:01;16.10;;;11.17;;
14396;SDS011;50653;47.810;13.022;2022-12-07T05:52:27;19.13;;;12.07;;
14396;SDS011;50653;47.810;13.022;2022-12-07T05:54:53;13.30;;;10.80;;
14396;SDS011;50653;47.810;13.022;2022-12-07T05:57:18;13.43;;;10.80;;
14396;SDS011;50653;47.810;13.022;2022-12-07T05:59:44;18.20;;;12.70;;
14396;SDS011;50653;47.810;13.022;2022-12-07T06:02:11;17.50;;;12.03;;
14396;SDS011;50653;47.810;13.022;2022-12-07T06:04:39;15.00;;;11.90;;
14396;SDS011;50653;47.810;13.022;2022-12-07T06:07:07;14.77;;;9.77;;
14396;SDS011;50653;47.810;13.022;2022-12-07T06:09:34;13.80;;;10.90;;
14396;SDS011;50653;47.810;13.022;2022-12-07T06:12:00;16.57;;;11.03;;
14396;SDS011;50653;47.810;13.022;2022-12-07T06:14:44;18.27;;;12.00;;
14396;SDS011;50653;47.810;13.022;2022-12-07T06:17:10;18.10;;;12.03;;
14396;SDS011;50653;47.810;13.022;2022-12-07T06:19:37;17.90;;;12.30;;
14396;SDS011;50653;47.810;13.022;2022-12-07T06:22:03;15.63;;;11.60;;
14396;SDS011;50653;47.810;13.022;2022-12-07T06:24:29;13.90;;;10.60;;
14396;SDS011;50653;47.810;13.022;2022-12-07T06:26:55;14.83;;;11.23;;
14396;SDS011;50653;47.810;13.022;2022-12-07T06:29:21;14.63;;;10.57;;
14396;SDS011;50653;47.810;13.022;2022-12-07T06:31:47;17.70;;;11.83;;
14396;SDS011;50653;47.810;13.022;2022-12-07T06:34:14;17.63;;;11.33;;
14396;SDS011;50653;47.810;13.022;2022-12-07T06:36:44;16.70;;;12.13;;
14396;SDS011;50653;47.810;13.022;2022-12-07T06:39:10;13.83;;;11.17;;
14396;SDS011;50653;47.810;13.022;2022-12-07T06:41:37;14.17;;;11.50;;
14396;SDS011;50653;47.810;13.022;2022-12-07T06:44:07;20.50;;;12.80;;
14396;SDS011;50653;47.810;13.022;2022-12-07T06:46:32;17.07;;;12.20;;
14396;SDS011;50653;47.810;13.022;2022-12-07T06:49:00;16.33;;;12.77;;
14396;SDS011;50653;47.810;13.022;2022-12-07T06:51:26;15.40;;;12.57;;
14396;SDS011;50653;47.810;13.022;2022-12-07T06:53:51;15.00;;;11.50;;
14396;SDS011;50653;47.810;13.022;2022-12-07T06:56:17;17.03;;;11.70;;
14396;SDS011;50653;47.810;13.022;2022-12-07T06:58:43;17.37;;;10.77;;
14396;SDS011;50653;47.810;13.022;2022-12-07T07:01:12;19.80;;;11.80;;
14396;SDS011;50653;47.810;13.022;2022-12-07T07:03:39;15.57;;;12.07;;
14396;SDS011;50653;47.810;13.022;2022-12-07T07:06:05;17.97;;;11.00;;
14396;SDS011;50653;47.810;13.022;2022-12-07T07:08:32;16.83;;;11.30;;
14396;SDS011;50653;47.810;13.022;2022-12-07T07:10:59;16.53;;;11.77;;
14396;SDS011;50653;47.810;13.022;2022-12-07T07:13:25;20.47;;;12.10;;
14396;SDS011;50653;47.810;13.022;2022-12-07T07:15:50;14.00;;;11.30;;
14396;SDS011;50653;47.810;13.022;2022-12-07T07:18:16;14.47;;;11.13;;
14396;SDS011;50653;47.810;13.022;2022-12-07T07:20:42;14.33;;;11.90;;
14396;SDS011;50653;47.810;13.022;2022-12-07T07:23:07;15.03;;;13.10;;
14396;SDS011;50653;47.810;13.022;2022-12-07T07:25:33;16.87;;;12.90;;
14396;SDS011;50653;47.810;13.022;2022-12-07T07:27:59;18.83;;;13.43;;
14396;SDS011;50653;47.810;13.022;2022-12-07T07:30:25;13.80;;;12.30;;
14396;SDS011;50653;47.810;13.022;2022-12-07T07:32:51;16.50;;;12.30;;
14396;SDS011;50653;47.810;13.022;2022-12-07T07:35:20;16.20;;;11.70;;
14396;SDS011;50653;47.810;13.022;2022-12-07T07:37:46;16.90;;;12.77;;
14396;SDS011;50653;47.810;13.022;2022-12-07T07:40:11;23.43;;;11.60;;
14396;SDS011;50653;47.810;13.022;2022-12-07T07:42:37;15.57;;;11.70;;
14396;SDS011;50653;47.810;13.022;2022-12-07T07:45:03;16.20;;;12.70;;
14396;SDS011;50653;47.810;13.022;2022-12-07T07:47:29;17.73;;;12.70;;
14396;SDS011;50653;47.810;13.022;2022-12-07T07:49:55;19.60;;;13.60;;
14396;SDS011;50653;47.810;13.022;2022-12-07T07:52:20;25.57;;;14.67;;
14396;SDS011;50653;47.810;13.022;2022-12-07T07:54:46;20.40;;;13.40;;
14396;SDS011;50653;47.810;13.022;2022-12-07T07:57:11;21.07;;;13.10;;
14396;SDS011;50653;47.810;13.022;2022-12-07T07:59:37;19.20;;;13.03;;
14396;SDS011;50653;47.810;13.022;2022-12-07T08:02:03;23.83;;;13.73;;
14396;SDS011;50653;47.810;13.022;2022-12-07T08:04:28;24.17;;;13.67;;
14396;SDS011;50653;47.810;13.022;2022-12-07T08:06:54;17.37;;;13.47;;
14396;SDS011;50653;47.810;13.022;2022-12-07T08:09:19;21.10;;;13.60;;
14396;SDS011;50653;47.810;13.022;2022-12-07T08:11:45;18.30;;;12.60;;
14396;SDS011;50653;47.810;13.022;2022-12-07T08:14:11;24.90;;;11.53;;
14396;SDS011;50653;47.810;13.022;2022-12-07T08:16:37;14.83;;;12.30;;
14396;SDS011;50653;47.810;13.022;2022-12-07T08:19:04;17.90;;;13.70;;
14396;SDS011;50653;47.810;13.022;2022-12-07T08:21:30;14.27;;;12.50;;
14396;SDS011;50653;47.810;13.022;2022-12-07T08:23:56;15.97;;;11.80;;
14396;SDS011;50653;47.810;13.022;2022-12-07T08:26:22;19.50;;;13.50;;
14396;SDS011;50653;47.810;13.022;2022-12-07T08:28:47;15.40;;;11.70;;
14396;SDS011;50653;47.810;13.022;2022-12-07T08:31:15;19.20;;;13.37;;
14396;SDS011;50653;47.810;13.022;2022-12-07T08:33:42;29.50;;;19.03;;
14396;SDS011;50653;47.810;13.022;2022-12-07T08:36:10;22.23;;;16.90;;
14396;SDS011;50653;47.810;13.022;2022-12-07T08:38:37;20.53;;;15.50;;
14396;SDS011;50653;47.810;13.022;2022-12-07T08:41:04;19.70;;;15.77;;
14396;SDS011;50653;47.810;13.022;2022-12-07T08:43:30;20.73;;;14.37;;
14396;SDS011;50653;47.810;13.022;2022-12-07T08:49:04;25.20;;;18.63;;
14396;SDS011;50653;47.810;13.022;2022-12-07T08:51:41;20.07;;;15.77;;
14396;SDS011;50653;47.810;13.022;2022-12-07T08:54:07;24.37;;;17.10;;
14396;SDS011;50653;47.810;13.022;2022-12-07T08:56:36;27.53;;;19.00;;
14396;SDS011;50653;47.810;13.022;2022-12-07T08:59:02;26.83;;;19.33;;
14396;SDS011;50653;47.810;13.022;2022-12-07T09:01:29;24.47;;;15.83;;
14396;SDS011;50653;47.810;13.022;2022-12-07T09:03:55;22.70;;;14.17;;
14396;SDS011;50653;47.810;13.022;2022-12-07T09:06:20;25.10;;;18.13;;
14396;SDS011;50653;47.810;13.022;2022-12-07T09:08:47;22.70;;;14.47;;
14396;SDS011;50653;47.810;13.022;2022-12-07T09:11:16;18.27;;;13.00;;
14396;SDS011;50653;47.810;13.022;2022-12-07T09:13:41;24.70;;;15.97;;
14396;SDS011;50653;47.810;13.022;2022-12-07T09:16:07;25.90;;;16.70;;
14396;SDS011;50653;47.810;13.022;2022-12-07T09:18:33;23.03;;;14.33;;
14396;SDS011;50653;47.810;13.022;2022-12-07T09:20:58;21.50;;;13.83;;
14396;SDS011;50653;47.810;13.022;2022-12-07T09:23:24;23.10;;;14.80;;
14396;SDS011;50653;47.810;13.022;2022-12-07T09:25:50;15.57;;;11.50;;
14396;SDS011;50653;47.810;13.022;2022-12-07T09:28:15;17.53;;;12.20;;
14396;SDS011;50653;47.810;13.022;2022-12-07T09:30:48;19.83;;;13.70;;
14396;SDS011;50653;47.810;13.022;2022-12-07T09:33:14;21.80;;;15.00;;
14396;SDS011;50653;47.810;13.022;2022-12-07T09:35:46;18.40;;;12.50;;
14396;SDS011;50653;47.810;13.022;2022-12-07T09:38:14;20.03;;;13.77;;
14396;SDS011;50653;47.810;13.022;2022-12-07T09:40:40;18.47;;;12.40;;
14396;SDS011;50653;47.810;13.022;2022-12-07T09:43:12;20.03;;;11.60;;
14396;SDS011;50653;47.810;13.022;2022-12-07T09:45:49;16.20;;;12.40;;
14396;SDS011;50653;47.810;13.022;2022-12-07T09:50:49;18.70;;;13.37;;
14396;SDS011;50653;47.810;13.022;2022-12-07T09:53:20;15.63;;;12.60;;
14396;SDS011;50653;47.810;13.022;2022-12-07T09:55:57;16.77;;;13.10;;
14396;SDS011;50653;47.810;13.022;2022-12-07T09:58:25;13.33;;;11.63;;
14396;SDS011;50653;47.810;13.022;2022-12-07T10:03:52;17.43;;;11.00;;
14396;SDS011;50653;47.810;13.022;2022-12-07T10:06:20;16.07;;;9.90;;
14396;SDS011;50653;47.810;13.022;2022-12-07T10:08:46;17.13;;;11.67;;
14396;SDS011;50653;47.810;13.022;2022-12-07T10:11:12;11.53;;;9.80;;
14396;SDS011;50653;47.810;13.022;2022-12-07T10:13:43;14.30;;;10.23;;
14396;SDS011;50653;47.810;13.022;2022-12-07T10:19:17;13.90;;;9.90;;
14396;SDS011;50653;47.810;13.022;2022-12-07T10:21:47;12.47;;;8.17;;
14396;SDS011;50653;47.810;13.022;2022-12-07T10:24:26;10.57;;;9.13;;
14396;SDS011;50653;47.810;13.022;2022-12-07T10:26:52;12.43;;;8.00;;
14396;SDS011;50653;47.810;13.022;2022-12-07T10:31:57;11.57;;;8.50;;
14396;SDS011;50653;47.810;13.022;2022-12-07T10:34:28;13.37;;;9.80;;
14396;SDS011;50653;47.810;13.022;2022-12-07T10:37:16;10.83;;;9.60;;
14396;SDS011;50653;47.810;13.022;2022-12-07T10:39:44;10.13;;;8.80;;
14396;SDS011;50653;47.810;13.022;2022-12-07T10:42:31;8.77;;;7.90;;
14396;SDS011;50653;47.810;13.022;2022-12-07T10:45:13;10.37;;;8.30;;
14396;SDS011;50653;47.810;13.022;2022-12-07T11:01:50;10.10;;;9.03;;
14396;SDS011;50653;47.810;13.022;2022-12-07T11:04:33;9.73;;;8.00;;
14396;SDS011;50653;47.810;13.022;2022-12-07T11:07:12;11.93;;;9.50;;
14396;SDS011;50653;47.810;13.022;2022-12-07T11:15:21;14.70;;;10.13;;
14396;SDS011;50653;47.810;13.022;2022-12-07T11:20:36;10.03;;;8.90;;
14396;SDS011;50653;47.810;13.022;2022-12-07T11:28:39;11.63;;;9.60;;
14396;SDS011;50653;47.810;13.022;2022-12-07T11:31:29;12.17;;;9.63;;
14396;SDS011;50653;47.810;13.022;2022-12-07T11:36:53;9.13;;;8.33;;
14396;SDS011;50653;47.810;13.022;2022-12-07T11:41:52;9.93;;;7.97;;
14396;SDS011;50653;47.810;13.022;2022-12-07T11:44:47;8.90;;;8.00;;
14396;SDS011;50653;47.810;13.022;2022-12-07T11:47:26;13.53;;;8.83;;
14396;SDS011;50653;47.810;13.022;2022-12-07T11:50:13;10.37;;;9.00;;
14396;SDS011;50653;47.810;13.022;2022-12-07T11:52:58;15.87;;;11.83;;
14396;SDS011;50653;47.810;13.022;2022-12-07T11:55:32;17.40;;;12.30;;
14396;SDS011;50653;47.810;13.022;2022-12-07T11:58:14;12.83;;;11.47;;
14396;SDS011;50653;47.810;13.022;2022-12-07T12:03:40;12.33;;;10.07;;
14396;SDS011;50653;47.810;13.022;2022-12-07T12:06:10;16.67;;;12.77;;
14396;SDS011;50653;47.810;13.022;2022-12-07T12:08:39;17.10;;;11.60;;
14396;SDS011;50653;47.810;13.022;2022-12-07T12:13:59;10.00;;;9.00;;
14396;SDS011;50653;47.810;13.022;2022-12-07T12:19:57;13.30;;;9.57;;
14396;SDS011;50653;47.810;13.022;2022-12-07T12:22:40;12.40;;;10.43;;
14396;SDS011;50653;47.810;13.022;2022-12-07T12:25:16;13.93;;;10.33;;
14396;SDS011;50653;47.810;13.022;2022-12-07T12:27:49;13.87;;;10.27;;
14396;SDS011;50653;47.810;13.022;2022-12-07T12:30:29;12.83;;;10.00;;
14396;SDS011;50653;47.810;13.022;2022-12-07T12:33:11;13.80;;;9.70;;
14396;SDS011;50653;47.810;13.022;2022-12-07T12:35:42;9.20;;;8.40;;
14396;SDS011;50653;47.810;13.022;2022-12-07T12:40:55;16.13;;;10.07;;
14396;SDS011;50653;47.810;13.022;2022-12-07T12:43:41;11.17;;;9.90;;
14396;SDS011;50653;47.810;13.022;2022-12-07T12:51:52;21.43;;;13.63;;
14396;SDS011;50653;47.810;13.022;2022-12-07T12:54:30;18.83;;;9.63;;
14396;SDS011;50653;47.810;13.022;2022-12-07T12:57:17;9.97;;;9.03;;
14396;SDS011;50653;47.810;13.022;2022-12-07T13:02:21;15.03;;;10.03;;
14396;SDS011;50653;47.810;13.022;2022-12-07T13:10:28;13.60;;;10.70;;
14396;SDS011;50653;47.810;13.022;2022-12-07T13:28:50;9.60;;;8.60;;
14396;SDS011;50653;47.810;13.022;2022-12-07T13:37:00;11.63;;;8.63;;
14396;SDS011;50653;47.810;13.022;2022-12-07T13:39:29;10.53;;;9.13;;
14396;SDS011;50653;47.810;13.022;2022-12-07T13:41:55;10.13;;;8.23;;
14396;SDS011;50653;47.810;13.022;2022-12-07T13:44:23;15.70;;;8.87;;
14396;SDS011;50653;47.810;13.022;2022-12-07T13:49:26;11.47;;;8.40;;
14396;SDS011;50653;47.810;13.022;2022-12-07T13:51:54;9.90;;;7.73;;
14396;SDS011;50653;47.810;13.022;2022-12-07T13:54:20;10.70;;;8.63;;
14396;SDS011;50653;47.810;13.022;2022-12-07T13:56:48;9.57;;;8.60;;
14396;SDS011;50653;47.810;13.022;2022-12-07T13:59:21;10.50;;;9.23;;
14396;SDS011;50653;47.810;13.022;2022-12-07T14:01:49;10.77;;;8.27;;
14396;SDS011;50653;47.810;13.022;2022-12-07T14:04:37;14.33;;;10.20;;
14396;SDS011;50653;47.810;13.022;2022-12-07T14:10:02;11.50;;;10.17;;
14396;SDS011;50653;47.810;13.022;2022-12-07T14:12:30;11.97;;;10.30;;
14396;SDS011;50653;47.810;13.022;2022-12-07T14:14:57;15.53;;;11.00;;
14396;SDS011;50653;47.810;13.022;2022-12-07T14:17:25;14.93;;;10.40;;
14396;SDS011;50653;47.810;13.022;2022-12-07T14:19:55;15.03;;;11.20;;
14396;SDS011;50653;47.810;13.022;2022-12-07T14:22:25;17.30;;;11.53;;
14396;SDS011;50653;47.810;13.022;2022-12-07T14:27:39;15.57;;;11.10;;
14396;SDS011;50653;47.810;13.022;2022-12-07T14:30:15;15.87;;;12.40;;
14396;SDS011;50653;47.810;13.022;2022-12-07T14:32:43;16.83;;;12.20;;
14396;SDS011;50653;47.810;13.022;2022-12-07T14:35:13;14.03;;;11.00;;
14396;SDS011;50653;47.810;13.022;2022-12-07T14:37:41;15.93;;;10.50;;
14396;SDS011;50653;47.810;13.022;2022-12-07T14:40:11;16.43;;;12.07;;
14396;SDS011;50653;47.810;13.022;2022-12-07T14:42:38;15.73;;;12.07;;
14396;SDS011;50653;47.810;13.022;2022-12-07T14:45:05;17.27;;;11.30;;
14396;SDS011;50653;47.810;13.022;2022-12-07T14:47:37;18.30;;;10.33;;
14396;SDS011;50653;47.810;13.022;2022-12-07T14:50:03;14.07;;;11.00;;
14396;SDS011;50653;47.810;13.022;2022-12-07T14:52:29;15.33;;;12.10;;
14396;SDS011;50653;47.810;13.022;2022-12-07T14:54:55;22.77;;;14.27;;
14396;SDS011;50653;47.810;13.022;2022-12-07T14:57:21;17.00;;;11.87;;
14396;SDS011;50653;47.810;13.022;2022-12-07T14:59:47;14.67;;;10.40;;
14396;SDS011;50653;47.810;13.022;2022-12-07T15:02:13;15.47;;;10.97;;
14396;SDS011;50653;47.810;13.022;2022-12-07T15:04:41;30.37;;;16.47;;
14396;SDS011;50653;47.810;13.022;2022-12-07T15:07:12;13.73;;;11.10;;
14396;SDS011;50653;47.810;13.022;2022-12-07T15:09:44;15.93;;;10.43;;
14396;SDS011;50653;47.810;13.022;2022-12-07T15:12:10;16.43;;;12.23;;
14396;SDS011;50653;47.810;13.022;2022-12-07T15:14:35;14.53;;;10.03;;
14396;SDS011;50653;47.810;13.022;2022-12-07T15:17:01;18.73;;;11.27;;
14396;SDS011;50653;47.810;13.022;2022-12-07T15:19:27;26.77;;;13.07;;
14396;SDS011;50653;47.810;13.022;2022-12-07T15:21:52;23.13;;;16.17;;
14396;SDS011;50653;47.810;13.022;2022-12-07T15:24:18;26.00;;;15.13;;
14396;SDS011;50653;47.810;13.022;2022-12-07T15:26:44;18.47;;;13.37;;
14396;SDS011;50653;47.810;13.022;2022-12-07T15:29:10;30.13;;;14.90;;
14396;SDS011;50653;47.810;13.022;2022-12-07T15:31:36;20.47;;;12.87;;
14396;SDS011;50653;47.810;13.022;2022-12-07T15:34:02;17.60;;;13.60;;
14396;SDS011;50653;47.810;13.022;2022-12-07T15:36:30;30.23;;;14.97;;
14396;SDS011;50653;47.810;13.022;2022-12-07T15:38:57;28.23;;;13.93;;
14396;SDS011;50653;47.810;13.022;2022-12-07T15:41:23;17.33;;;13.70;;
14396;SDS011;50653;47.810;13.022;2022-12-07T15:43:49;18.33;;;12.60;;
14396;SDS011;50653;47.810;13.022;2022-12-07T15:46:33;20.30;;;14.50;;
14396;SDS011;50653;47.810;13.022;2022-12-07T15:49:01;25.50;;;15.30;;
14396;SDS011;50653;47.810;13.022;2022-12-07T15:51:27;24.20;;;15.00;;
14396;SDS011;50653;47.810;13.022;2022-12-07T15:53:52;23.67;;;15.77;;
14396;SDS011;50653;47.810;13.022;2022-12-07T15:56:19;18.77;;;13.73;;
14396;SDS011;50653;47.810;13.022;2022-12-07T15:58:44;21.37;;;14.10;;
14396;SDS011;50653;47.810;13.022;2022-12-07T16:01:14;17.03;;;12.47;;
14396;SDS011;50653;47.810;13.022;2022-12-07T16:03:43;15.43;;;10.80;;
14396;SDS011;50653;47.810;13.022;2022-12-07T16:06:10;16.03;;;10.77;;
14396;SDS011;50653;47.810;13.022;2022-12-07T16:08:36;16.30;;;10.20;;
14396;SDS011;50653;47.810;13.022;2022-12-07T16:11:05;14.90;;;11.57;;
14396;SDS011;50653;47.810;13.022;2022-12-07T16:13:31;19.13;;;11.57;;
14396;SDS011;50653;47.810;13.022;2022-12-07T16:15:57;17.40;;;11.27;;
14396;SDS011;50653;47.810;13.022;2022-12-07T16:18:23;18.30;;;11.73;;
14396;SDS011;50653;47.810;13.022;2022-12-07T16:20:48;18.97;;;13.90;;
14396;SDS011;50653;47.810;13.022;2022-12-07T16:23:14;16.70;;;12.07;;
14396;SDS011;50653;47.810;13.022;2022-12-07T16:25:40;22.23;;;13.40;;
14396;SDS011;50653;47.810;13.022;2022-12-07T16:28:06;21.60;;;13.00;;
14396;SDS011;50653;47.810;13.022;2022-12-07T16:30:33;16.80;;;11.00;;
14396;SDS011;50653;47.810;13.022;2022-12-07T16:32:59;13.73;;;10.70;;
14396;SDS011;50653;47.810;13.022;2022-12-07T16:35:24;12.47;;;11.17;;